createdAt,value
2022-08-12T00:00:02.281Z,68.84
2022-08-12T00:01:02.267Z,68.94
2022-08-12T00:02:05.616Z,69.04
2022-08-12T00:03:02.279Z,68.94
2022-08-12T00:04:02.229Z,69.45
2022-08-12T00:05:02.217Z,69.34
2022-08-12T00:06:05.050Z,69.65
2022-08-12T00:07:02.183Z,69.68
2022-08-12T00:08:02.165Z,69.07
2022-08-12T00:09:02.158Z,69.24
2022-08-12T00:10:02.142Z,69.65
2022-08-12T00:11:09.847Z,69.75
2022-08-12T00:12:03.143Z,69.89
2022-08-12T00:13:02.110Z,69.58
2022-08-12T00:14:02.085Z,69.89
2022-08-12T00:15:02.077Z,69.58
2022-08-12T00:16:02.066Z,69.78
2022-08-12T00:17:02.054Z,70.49
2022-08-12T00:18:02.031Z,70.39
2022-08-12T00:19:02.023Z,70.09
2022-08-12T00:20:02.016Z,69.89
2022-08-12T00:21:01.999Z,69.78
2022-08-12T00:22:01.981Z,69.41
2022-08-12T00:23:01.970Z,69.48
2022-08-12T00:24:01.953Z,70.62
2022-08-12T00:25:01.946Z,70.22
2022-08-12T00:26:22.342Z,70.52
2022-08-12T00:27:01.918Z,70.02
2022-08-12T00:28:01.904Z,70.02
2022-08-12T00:29:01.891Z,70.93
2022-08-12T00:30:01.870Z,70.42
2022-08-12T00:31:01.860Z,70.42
2022-08-12T00:32:01.840Z,69.95
2022-08-12T00:33:02.118Z,70.42
2022-08-12T00:34:01.816Z,71.03
2022-08-12T00:35:01.802Z,71.26
2022-08-12T00:36:02.819Z,70.86
2022-08-12T00:37:13.088Z,70.86
2022-08-12T00:38:02.785Z,70.52
2022-08-12T00:39:01.755Z,70.56
2022-08-12T00:40:01.738Z,71.33
2022-08-12T00:41:01.728Z,71.26
2022-08-12T00:42:01.705Z,70.96
2022-08-12T00:43:01.694Z,71.16
2022-08-12T00:44:01.678Z,71.47
2022-08-12T00:45:01.668Z,71.37
2022-08-12T00:46:01.656Z,71.57
2022-08-12T00:47:01.650Z,71.77
2022-08-12T00:48:01.628Z,71.37
2022-08-12T00:49:01.619Z,70.86
2022-08-12T00:50:01.603Z,71.57
2022-08-12T00:51:01.592Z,71.57
2022-08-12T00:52:01.573Z,71.37
2022-08-12T00:53:01.563Z,71.06
2022-08-12T00:54:01.542Z,70.89
2022-08-12T00:55:01.532Z,71.80
2022-08-12T00:56:01.513Z,72.08
2022-08-12T00:57:01.506Z,71.97
2022-08-12T00:58:01.486Z,72.11
2022-08-12T00:59:01.476Z,71.50
2022-08-12T01:00:01.467Z,71.91
2022-08-12T01:01:01.497Z,72.11
2022-08-12T01:02:12.216Z,72.31
2022-08-12T01:03:02.451Z,72.61
2022-08-12T01:04:01.411Z,71.91
2022-08-12T01:05:01.416Z,72.41
2022-08-12T01:06:01.384Z,72.65
2022-08-12T01:07:01.375Z,72.81
2022-08-12T01:08:01.357Z,72.52
2022-08-12T01:09:01.347Z,72.61
2022-08-12T01:10:01.326Z,72.72
2022-08-12T01:11:01.318Z,72.41
2022-08-12T01:12:01.299Z,72.72
2022-08-12T01:13:18.141Z,72.92
2022-08-12T01:14:02.303Z,72.41
2022-08-12T01:15:01.264Z,72.65
2022-08-12T01:16:01.263Z,73.12
2022-08-12T01:17:01.234Z,73.43
2022-08-12T01:18:01.224Z,73.36
2022-08-12T01:19:01.216Z,72.81
2022-08-12T01:20:01.197Z,72.92
2022-08-12T01:21:01.281Z,72.65
2022-08-12T01:22:01.175Z,72.75
2022-08-12T01:23:01.153Z,73.25
2022-08-12T01:24:28.113Z,73.76
2022-08-12T01:25:02.160Z,73.56
2022-08-12T01:26:01.112Z,73.39
2022-08-12T01:27:01.095Z,73.66
2022-08-12T01:28:01.086Z,73.97
2022-08-12T01:29:01.068Z,74.07
2022-08-12T01:30:01.059Z,74.07
2022-08-12T01:31:01.045Z,74.17
2022-08-12T01:32:01.035Z,73.39
2022-08-12T01:33:01.013Z,73.86
2022-08-12T01:34:01.014Z,73.49
2022-08-12T01:35:00.992Z,73.60
2022-08-12T01:36:08.292Z,73.60
2022-08-12T01:37:00.970Z,74.00
2022-08-12T01:38:00.954Z,73.70
2022-08-12T01:39:00.938Z,73.90
2022-08-12T01:40:35.109Z,74.41
2022-08-12T01:41:01.006Z,74.10
2022-08-12T01:42:00.898Z,74.30
2022-08-12T01:43:00.877Z,73.90
2022-08-12T01:44:00.867Z,73.60
2022-08-12T01:45:00.852Z,73.39
2022-08-12T01:46:00.851Z,74.21
2022-08-12T01:47:00.828Z,73.80
2022-08-12T01:48:00.826Z,73.70
2022-08-12T01:49:00.802Z,74.10
2022-08-12T01:50:00.789Z,74.34
2022-08-12T01:51:01.424Z,74.41
2022-08-12T01:52:15.689Z,74.65
2022-08-12T01:53:01.765Z,74.24
2022-08-12T01:54:00.736Z,74.14
2022-08-12T01:55:00.717Z,74.95
2022-08-12T01:56:00.705Z,74.95
2022-08-12T01:57:00.688Z,75.05
2022-08-12T01:58:01.433Z,74.74
2022-08-12T01:59:00.667Z,74.34
2022-08-12T02:00:00.660Z,74.44
2022-08-12T02:01:00.719Z,75.15
2022-08-12T02:02:00.632Z,74.95
2022-08-12T02:03:00.612Z,75.56
2022-08-12T02:04:00.600Z,75.29
2022-08-12T02:05:00.585Z,74.95
2022-08-12T02:06:00.571Z,74.65
2022-08-12T02:07:00.552Z,74.68
2022-08-12T02:08:00.540Z,74.74
2022-08-12T02:09:00.524Z,75.39
2022-08-12T02:10:00.516Z,75.56
2022-08-12T02:11:00.497Z,75.86
2022-08-12T02:12:04.563Z,75.39
2022-08-12T02:13:00.470Z,75.79
2022-08-12T02:14:00.463Z,75.79
2022-08-12T02:15:00.448Z,75.79
2022-08-12T02:16:00.443Z,75.86
2022-08-12T02:17:00.421Z,75.79
2022-08-12T02:18:00.407Z,75.49
2022-08-12T02:19:00.397Z,76.20
2022-08-12T02:20:00.378Z,76.31
2022-08-12T02:21:00.360Z,76.20
2022-08-12T02:22:00.352Z,76.34
2022-08-12T02:23:00.337Z,76.24
2022-08-12T02:24:00.322Z,76.54
2022-08-12T02:25:00.309Z,76.75
2022-08-12T02:26:00.439Z,77.66
2022-08-12T02:27:00.279Z,77.56
2022-08-12T02:28:00.273Z,77.45
2022-08-12T02:29:00.253Z,77.25
2022-08-12T02:30:00.241Z,77.76
2022-08-12T02:31:00.222Z,78.10
2022-08-12T02:32:00.219Z,78.10
2022-08-12T02:33:00.193Z,77.80
2022-08-12T02:34:00.187Z,77.97
2022-08-12T02:35:00.168Z,78.20
2022-08-12T02:36:00.158Z,78.41
2022-08-12T02:37:00.256Z,77.86
2022-08-12T02:38:00.133Z,77.86
2022-08-12T02:39:00.115Z,77.36
2022-08-12T02:40:00.274Z,77.05
2022-08-12T02:41:00.142Z,76.95
2022-08-12T02:42:00.094Z,77.56
2022-08-12T02:43:00.063Z,77.97
2022-08-12T02:44:00.055Z,77.90
2022-08-12T02:45:00.035Z,77.90
2022-08-12T02:46:00.025Z,77.66
2022-08-12T02:46:59.999Z,77.19
2022-08-12T02:48:01.397Z,77.45
2022-08-12T02:48:59.971Z,78.10
2022-08-12T02:49:59.966Z,78.10
2022-08-12T02:50:59.948Z,77.70
2022-08-12T02:51:59.936Z,78.10
2022-08-12T02:52:59.923Z,78.41
2022-08-12T02:54:04.798Z,78.00
2022-08-12T02:54:59.888Z,78.34
2022-08-12T02:55:59.875Z,78.04
2022-08-12T02:56:59.861Z,77.70
2022-08-12T02:57:59.849Z,77.70
2022-08-12T02:58:59.834Z,78.34
2022-08-12T02:59:59.826Z,78.55
2022-08-12T03:00:59.860Z,78.55
2022-08-12T03:01:59.803Z,78.95
2022-08-12T03:02:59.785Z,79.05
2022-08-12T03:03:59.771Z,78.55
2022-08-12T03:04:59.755Z,78.48
2022-08-12T03:05:59.746Z,78.85
2022-08-12T03:06:59.734Z,79.46
2022-08-12T03:08:00.392Z,79.25
2022-08-12T03:08:59.701Z,79.25
2022-08-12T03:10:05.522Z,79.46
2022-08-12T03:10:59.670Z,79.46
2022-08-12T03:11:59.661Z,79.25
2022-08-12T03:12:59.641Z,79.05
2022-08-12T03:13:59.631Z,78.78
2022-08-12T03:14:59.617Z,78.64
2022-08-12T03:15:59.614Z,79.39
2022-08-12T03:16:59.587Z,79.70
2022-08-12T03:18:24.049Z,79.50
2022-08-12T03:19:00.607Z,79.50
2022-08-12T03:20:10.337Z,79.80
2022-08-12T03:20:59.539Z,79.60
2022-08-12T03:22:08.749Z,79.29
2022-08-12T03:22:59.506Z,79.19
2022-08-12T03:23:59.504Z,79.09
2022-08-12T03:24:59.481Z,79.70
2022-08-12T03:25:59.533Z,80.15
2022-08-12T03:27:00.198Z,79.70
2022-08-12T03:27:59.448Z,79.70
2022-08-12T03:28:59.432Z,79.53
2022-08-12T03:29:59.418Z,80.31
2022-08-12T03:30:59.408Z,80.31
2022-08-12T03:31:59.391Z,80.35
2022-08-12T03:32:59.381Z,80.21
2022-08-12T03:34:02.282Z,80.41
2022-08-12T03:34:59.352Z,80.15
2022-08-12T03:35:59.336Z,79.94
2022-08-12T03:36:59.327Z,79.84
2022-08-12T03:37:59.308Z,80.76
2022-08-12T03:38:59.301Z,81.06
2022-08-12T03:39:59.308Z,80.85
2022-08-12T03:40:59.278Z,80.96
2022-08-12T03:41:59.257Z,81.26
2022-08-12T03:42:59.244Z,81.26
2022-08-12T03:43:59.233Z,80.65
2022-08-12T03:44:59.219Z,80.55
2022-08-12T03:45:59.213Z,80.96
2022-08-12T03:46:59.186Z,80.55
2022-08-12T03:47:59.182Z,80.55
2022-08-12T03:48:59.161Z,80.55
2022-08-12T03:49:59.158Z,80.55
2022-08-12T03:50:59.134Z,80.65
2022-08-12T03:51:59.131Z,80.96
2022-08-12T03:52:59.107Z,81.16
2022-08-12T03:53:59.098Z,80.96
2022-08-12T03:54:59.084Z,81.26
2022-08-12T03:55:59.071Z,80.76
2022-08-12T03:56:59.061Z,81.26
2022-08-12T03:57:59.049Z,81.26
2022-08-12T03:58:59.790Z,81.67
2022-08-12T03:59:59.024Z,81.67
2022-08-12T04:00:59.063Z,81.57
2022-08-12T04:01:59.012Z,81.16
2022-08-12T04:02:58.977Z,81.46
2022-08-12T04:03:58.967Z,81.46
2022-08-12T04:04:58.947Z,81.37
2022-08-12T04:05:58.937Z,81.57
2022-08-12T04:06:58.925Z,81.81
2022-08-12T04:07:58.914Z,82.28
2022-08-12T04:08:58.898Z,81.98
2022-08-12T04:09:58.883Z,81.98
2022-08-12T04:10:58.870Z,82.38
2022-08-12T04:11:58.861Z,82.68
2022-08-12T04:12:58.846Z,81.98
2022-08-12T04:13:58.835Z,81.91
2022-08-12T04:14:58.814Z,81.91
2022-08-12T04:15:58.807Z,82.32
2022-08-12T04:16:58.789Z,82.59
2022-08-12T04:18:07.661Z,83.23
2022-08-12T04:18:58.758Z,82.62
2022-08-12T04:19:58.760Z,83.03
2022-08-12T04:20:58.732Z,82.73
2022-08-12T04:22:03.055Z,82.62
2022-08-12T04:22:58.706Z,82.21
2022-08-12T04:23:58.700Z,82.01
2022-08-12T04:24:58.677Z,82.52
2022-08-12T04:25:58.667Z,82.42
2022-08-12T04:26:58.656Z,82.73
2022-08-12T04:27:58.639Z,82.82
2022-08-12T04:28:59.652Z,82.82
2022-08-12T04:30:30.252Z,82.52
2022-08-12T04:30:59.626Z,82.28
2022-08-12T04:31:58.591Z,82.59
2022-08-12T04:32:58.567Z,82.52
2022-08-12T04:33:58.564Z,82.32
2022-08-12T04:34:58.543Z,82.42
2022-08-12T04:35:58.535Z,82.73
2022-08-12T04:36:58.514Z,83.23
2022-08-12T04:38:00.644Z,83.23
2022-08-12T04:38:59.739Z,83.23
2022-08-12T04:39:58.557Z,82.93
2022-08-12T04:40:58.462Z,83.13
2022-08-12T04:41:58.895Z,83.03
2022-08-12T04:42:58.435Z,82.93
2022-08-12T04:44:01.869Z,82.82
2022-08-12T04:44:58.409Z,82.93
2022-08-12T04:45:58.398Z,82.93
2022-08-12T04:46:58.388Z,83.13
2022-08-12T04:47:58.373Z,83.23
2022-08-12T04:48:58.362Z,83.44
2022-08-12T04:49:58.351Z,83.64
2022-08-12T04:50:58.333Z,83.13
2022-08-12T04:51:59.542Z,83.13
2022-08-12T04:52:58.304Z,82.93
2022-08-12T04:53:58.291Z,83.13
2022-08-12T04:54:58.280Z,83.13
2022-08-12T04:55:58.262Z,83.03
2022-08-12T04:57:04.846Z,82.93
2022-08-12T04:57:59.263Z,82.68
2022-08-12T04:58:58.223Z,82.93
2022-08-12T04:59:58.217Z,83.03
2022-08-12T05:00:58.194Z,82.68
2022-08-12T05:01:58.231Z,82.32
2022-08-12T05:02:58.272Z,81.87
2022-08-12T05:03:58.158Z,81.77
2022-08-12T05:05:01.027Z,82.38
2022-08-12T05:05:58.137Z,81.77
2022-08-12T05:06:58.114Z,82.48
2022-08-12T05:07:58.105Z,81.57
2022-08-12T05:08:58.091Z,81.37
2022-08-12T05:09:59.714Z,81.46
2022-08-12T05:10:58.064Z,81.23
2022-08-12T05:11:58.061Z,81.57
2022-08-12T05:12:58.039Z,82.24
2022-08-12T05:13:58.027Z,81.63
2022-08-12T05:14:58.010Z,81.84
2022-08-12T05:16:05.097Z,80.82
2022-08-12T05:16:57.985Z,80.51
2022-08-12T05:17:59.997Z,80.21
2022-08-12T05:18:57.954Z,80.47
2022-08-12T05:19:58.155Z,80.17
2022-08-12T05:20:57.928Z,79.66
2022-08-12T05:21:57.921Z,79.25
2022-08-12T05:23:01.083Z,79.83
2022-08-12T05:23:57.894Z,79.02
2022-08-12T05:24:57.874Z,78.98
2022-08-12T05:25:57.874Z,78.91
2022-08-12T05:26:57.844Z,78.67
2022-08-12T05:27:58.978Z,78.33
2022-08-12T05:28:57.819Z,77.76
2022-08-12T05:30:06.894Z,78.27
2022-08-12T05:30:57.801Z,77.52
2022-08-12T05:31:57.784Z,77.79
2022-08-12T05:33:00.016Z,77.01
2022-08-12T05:33:57.751Z,76.40
2022-08-12T05:34:57.737Z,76.27
2022-08-12T05:35:57.723Z,76.37
2022-08-12T05:36:57.713Z,75.52
2022-08-12T05:37:57.696Z,75.22
2022-08-12T05:38:57.683Z,75.22
2022-08-12T05:39:57.746Z,75.38
2022-08-12T05:40:57.657Z,75.25
2022-08-12T05:41:57.656Z,74.40
2022-08-12T05:42:57.632Z,72.75
2022-08-12T05:43:57.617Z,71.50
2022-08-12T05:44:57.624Z,70.66
2022-08-12T05:45:57.589Z,70.93
2022-08-12T05:46:57.588Z,69.48
2022-08-12T05:47:57.560Z,68.74
2022-08-12T05:48:57.553Z,68.71
2022-08-12T05:49:57.661Z,66.86
2022-08-12T05:50:57.563Z,66.33
2022-08-12T05:51:57.501Z,66.33
2022-08-12T05:52:57.492Z,67.07
2022-08-12T05:53:57.536Z,65.56
2022-08-12T05:54:58.064Z,64.82
2022-08-12T05:55:57.518Z,63.59
2022-08-12T05:56:57.540Z,64.16
2022-08-12T05:57:57.540Z,63.76
2022-08-12T05:58:57.540Z,62.02
2022-08-12T05:59:57.576Z,61.65
2022-08-12T06:00:57.512Z,61.65
2022-08-12T06:02:09.314Z,61.94
2022-08-12T06:02:57.488Z,62.15
2022-08-12T06:03:57.412Z,61.91
2022-08-12T06:04:57.387Z,61.91
2022-08-12T06:05:57.434Z,61.41
2022-08-12T06:06:57.359Z,61.49
2022-08-12T06:08:01.677Z,60.78
2022-08-12T06:08:57.401Z,60.38
2022-08-12T06:09:57.437Z,60.45
2022-08-12T06:10:57.316Z,60.32
2022-08-12T06:12:05.780Z,59.92
2022-08-12T06:12:57.349Z,59.19
2022-08-12T06:13:57.361Z,59.36
2022-08-12T06:14:57.339Z,58.73
2022-08-12T06:15:57.315Z,58.66
2022-08-12T06:16:57.319Z,58.43
2022-08-12T06:17:57.243Z,57.93
2022-08-12T06:18:57.217Z,57.96
2022-08-12T06:20:25.895Z,58.49
2022-08-12T06:20:57.212Z,58.79
2022-08-12T06:21:57.233Z,59.29
2022-08-12T06:22:57.229Z,59.86
2022-08-12T06:23:57.115Z,58.13
2022-08-12T06:24:57.126Z,57.63
2022-08-12T06:25:57.214Z,57.83
2022-08-12T06:26:57.115Z,57.73
2022-08-12T06:28:07.472Z,58.06
2022-08-12T06:28:58.139Z,57.43
2022-08-12T06:30:09.490Z,57.93
2022-08-12T06:31:24.241Z,57.13
2022-08-12T06:31:57.045Z,58.16
2022-08-12T06:33:04.375Z,58.69
2022-08-12T06:35:21.665Z,59.42
2022-08-12T06:35:25.222Z,59.62
2022-08-12T06:35:59.093Z,60.10
2022-08-12T06:36:56.946Z,60.36
2022-08-12T06:37:57.674Z,58.53
2022-08-12T06:38:56.874Z,58.30
2022-08-12T06:40:01.537Z,56.85
2022-08-12T06:40:57.867Z,55.74
2022-08-12T06:42:05.154Z,55.94
2022-08-12T06:42:56.820Z,55.24
2022-08-12T06:44:04.462Z,56.67
2022-08-12T06:44:57.819Z,56.24
2022-08-12T06:45:56.785Z,56.17
2022-08-12T06:46:58.427Z,56.90
2022-08-12T06:47:56.759Z,57.33
2022-08-12T06:48:56.752Z,57.00
2022-08-12T06:49:56.732Z,57.00
2022-08-12T06:50:56.721Z,56.87
2022-08-12T06:51:57.315Z,56.60
2022-08-12T06:52:56.696Z,57.50
2022-08-12T06:53:56.680Z,57.17
2022-08-12T06:54:56.662Z,56.67
2022-08-12T06:55:57.865Z,57.24
2022-08-12T06:58:06.177Z,57.07
2022-08-12T06:58:07.943Z,57.17
2022-08-12T06:58:56.615Z,57.17
2022-08-12T06:59:56.595Z,57.28
2022-08-12T07:00:56.628Z,57.05
2022-08-12T07:01:56.572Z,55.59
2022-08-12T07:02:56.565Z,55.14
2022-08-12T07:04:05.160Z,54.09
2022-08-12T07:04:56.536Z,52.44
2022-08-12T07:05:56.515Z,51.97
2022-08-12T07:06:56.508Z,53.19
2022-08-12T07:07:56.494Z,54.22
2022-08-12T07:08:56.478Z,55.04
2022-08-12T07:10:07.415Z,55.77
2022-08-12T07:10:56.463Z,54.64
2022-08-12T07:11:56.439Z,54.52
2022-08-12T07:12:56.428Z,54.22
2022-08-12T07:14:08.531Z,53.89
2022-08-12T07:14:57.445Z,53.99
2022-08-12T07:15:56.392Z,54.32
2022-08-12T07:16:56.377Z,54.82
2022-08-12T07:17:56.362Z,54.71
2022-08-12T07:18:56.350Z,54.71
2022-08-12T07:20:01.950Z,55.51
2022-08-12T07:20:57.344Z,54.54
2022-08-12T07:22:00.264Z,54.54
2022-08-12T07:22:56.297Z,54.84
2022-08-12T07:23:56.279Z,55.04
2022-08-12T07:24:56.272Z,55.02
2022-08-12T07:25:58.401Z,55.04
2022-08-12T07:26:56.255Z,54.52
2022-08-12T07:27:56.231Z,54.61
2022-08-12T07:28:56.221Z,54.29
2022-08-12T07:30:00.036Z,54.29
2022-08-12T07:30:57.214Z,53.44
2022-08-12T07:31:56.183Z,51.79
2022-08-12T07:32:59.910Z,51.65
2022-08-12T07:33:56.146Z,50.63
2022-08-12T07:34:56.137Z,50.28
2022-08-12T07:35:56.120Z,48.07
2022-08-12T07:36:56.107Z,47.83
2022-08-12T07:37:56.099Z,47.74
2022-08-12T07:38:56.085Z,45.41
2022-08-12T07:40:00.238Z,42.92
2022-08-12T07:40:56.054Z,43.10
2022-08-12T07:41:56.040Z,43.15
2022-08-12T07:42:56.034Z,42.61
2022-08-12T07:43:56.014Z,40.92
2022-08-12T07:44:56.148Z,40.96
2022-08-12T07:45:55.988Z,40.74
2022-08-12T07:46:55.983Z,41.39
2022-08-12T07:47:55.959Z,38.64
2022-08-12T07:48:55.963Z,39.92
2022-08-12T07:50:04.614Z,39.97
2022-08-12T07:50:56.958Z,38.10
2022-08-12T07:51:55.909Z,40.48
2022-08-12T07:52:55.908Z,39.50
2022-08-12T07:54:00.126Z,38.99
2022-08-12T07:54:55.888Z,37.12
2022-08-12T07:55:55.857Z,35.74
2022-08-12T07:56:55.852Z,36.45
2022-08-12T07:57:55.849Z,35.94
2022-08-12T07:58:55.821Z,36.80
2022-08-12T07:59:56.279Z,36.77
2022-08-12T08:00:55.796Z,35.54
2022-08-12T08:01:55.841Z,36.51
2022-08-12T08:02:55.772Z,35.88
2022-08-12T08:03:55.757Z,36.84
2022-08-12T08:04:55.746Z,36.53
2022-08-12T08:05:55.733Z,37.36
2022-08-12T08:06:55.721Z,36.54
2022-08-12T08:07:55.727Z,36.19
2022-08-12T08:08:55.702Z,33.48
2022-08-12T08:09:58.613Z,33.69
2022-08-12T08:10:55.673Z,35.71
2022-08-12T08:11:55.652Z,35.36
2022-08-12T08:12:55.645Z,33.28
2022-08-12T08:13:55.637Z,33.59
2022-08-12T08:14:55.622Z,34.38
2022-08-12T08:16:03.981Z,33.56
2022-08-12T08:16:56.621Z,34.31
2022-08-12T08:17:55.581Z,33.17
2022-08-12T08:18:55.575Z,34.31
2022-08-12T08:20:03.894Z,34.77
2022-08-12T08:20:56.707Z,34.18
2022-08-12T08:21:55.529Z,34.92
2022-08-12T08:22:55.527Z,34.41
2022-08-12T08:23:55.840Z,32.63
2022-08-12T08:24:55.498Z,31.68
2022-08-12T08:25:55.481Z,33.03
2022-08-12T08:26:55.475Z,34.53
2022-08-12T08:27:55.452Z,34.59
2022-08-12T08:28:55.446Z,34.18
2022-08-12T08:29:55.433Z,33.82
2022-08-12T08:30:55.417Z,32.94
2022-08-12T08:31:55.406Z,33.22
2022-08-12T08:32:55.394Z,32.07
2022-08-12T08:34:05.497Z,33.61
2022-08-12T08:34:55.475Z,32.42
2022-08-12T08:35:55.359Z,31.84
2022-08-12T08:36:55.344Z,32.12
2022-08-12T08:37:55.334Z,31.65
2022-08-12T08:38:57.962Z,31.54
2022-08-12T08:39:55.369Z,31.51
2022-08-12T08:40:55.296Z,30.90
2022-08-12T08:42:14.186Z,30.13
2022-08-12T08:42:55.276Z,31.16
2022-08-12T08:43:55.259Z,31.35
2022-08-12T08:44:57.981Z,29.75
2022-08-12T08:45:55.237Z,29.66
2022-08-12T08:46:55.226Z,29.20
2022-08-12T08:47:58.407Z,30.35
2022-08-12T08:48:59.363Z,28.58
2022-08-12T08:49:55.191Z,28.68
2022-08-12T08:51:04.455Z,29.20
2022-08-12T08:51:55.168Z,30.42
2022-08-12T08:52:55.155Z,27.29
2022-08-12T08:53:55.146Z,27.47
2022-08-12T08:54:55.132Z,27.56
2022-08-12T08:56:04.627Z,27.69
2022-08-12T08:56:55.111Z,29.04
2022-08-12T08:57:55.096Z,26.98
2022-08-12T08:58:55.092Z,28.04
2022-08-12T08:59:55.074Z,27.06
2022-08-12T09:00:55.062Z,28.09
2022-08-12T09:01:55.146Z,27.91
2022-08-12T09:02:58.674Z,28.79
2022-08-12T09:05:09.145Z,29.77
2022-08-12T09:05:12.985Z,28.20
2022-08-12T09:06:02.954Z,29.38
2022-08-12T09:06:56.032Z,29.44
2022-08-12T09:08:09.025Z,28.82
2022-08-12T09:08:54.970Z,27.92
2022-08-12T09:10:03.656Z,27.89
2022-08-12T09:12:10.958Z,27.04
2022-08-12T09:12:55.774Z,27.29
2022-08-12T09:14:11.449Z,27.91
2022-08-12T09:14:54.901Z,27.59
2022-08-12T09:15:57.565Z,28.92
2022-08-12T09:16:54.875Z,30.19
2022-08-12T09:17:55.070Z,30.44
2022-08-12T09:18:54.859Z,29.34
2022-08-12T09:19:58.323Z,28.49
2022-08-12T09:20:54.836Z,28.77
2022-08-12T09:21:55.471Z,28.44
2022-08-12T09:22:55.000Z,29.10
2022-08-12T09:23:58.906Z,28.01
2022-08-12T09:24:54.793Z,27.81
2022-08-12T09:25:54.778Z,28.50
2022-08-12T09:26:54.778Z,28.49
2022-08-12T09:28:03.427Z,27.51
2022-08-12T09:28:54.745Z,28.58
2022-08-12T09:30:11.013Z,28.45
2022-08-12T09:30:57.300Z,27.68
2022-08-12T09:32:04.089Z,28.11
2022-08-12T09:33:05.178Z,28.20
2022-08-12T09:34:29.259Z,28.93
2022-08-12T09:34:54.683Z,29.13
2022-08-12T09:36:03.216Z,29.20
2022-08-12T09:37:01.126Z,28.09
2022-08-12T09:37:58.823Z,28.52
2022-08-12T09:38:59.173Z,28.03
2022-08-12T09:40:04.395Z,29.17
2022-08-12T09:42:07.175Z,27.68
2022-08-12T09:42:32.893Z,27.98
2022-08-12T09:43:15.254Z,27.86
2022-08-12T09:44:01.288Z,26.87
2022-08-12T09:45:18.009Z,27.33
2022-08-12T09:46:20.625Z,26.33
2022-08-12T09:46:55.941Z,26.23
2022-08-12T09:47:59.926Z,26.36
2022-08-12T09:48:56.296Z,27.01
2022-08-12T09:49:57.867Z,24.87
2022-08-12T09:50:55.548Z,24.95
2022-08-12T09:51:54.490Z,25.43
2022-08-12T09:52:56.802Z,24.83
2022-08-12T09:54:09.134Z,24.27
2022-08-12T09:54:59.786Z,24.99
2022-08-12T09:56:06.300Z,26.04
2022-08-12T09:57:00.513Z,26.82
2022-08-12T09:58:45.562Z,25.76
2022-08-12T09:59:00.062Z,26.82
2022-08-12T10:00:12.952Z,26.10
2022-08-12T10:00:54.518Z,25.65
2022-08-12T10:02:45.959Z,26.66
2022-08-12T10:02:54.876Z,26.34
2022-08-12T10:04:03.494Z,26.56
2022-08-12T10:04:54.402Z,27.70
2022-08-12T10:06:26.325Z,26.59
2022-08-12T10:06:57.628Z,25.51
2022-08-12T10:07:54.312Z,24.91
2022-08-12T10:08:54.300Z,25.58
2022-08-12T10:09:58.845Z,25.47
2022-08-12T10:10:54.272Z,25.54
2022-08-12T10:12:10.047Z,25.14
2022-08-12T10:13:06.620Z,23.87
2022-08-12T10:13:55.275Z,24.24
2022-08-12T10:14:55.107Z,25.04
2022-08-12T10:16:02.952Z,26.67
2022-08-12T10:16:55.245Z,24.82
2022-08-12T10:18:06.005Z,24.54
2022-08-12T10:18:54.195Z,23.66
2022-08-12T10:19:54.177Z,24.17
2022-08-12T10:20:54.167Z,25.07
2022-08-12T10:21:56.890Z,24.48
2022-08-12T10:22:54.417Z,24.66
2022-08-12T10:23:57.086Z,25.43
2022-08-12T10:24:54.135Z,25.25
2022-08-12T10:26:34.566Z,24.68
2022-08-12T10:26:54.094Z,24.78
2022-08-12T10:28:05.352Z,25.35
2022-08-12T10:29:02.954Z,25.03
2022-08-12T10:30:03.669Z,24.35
2022-08-12T10:30:58.447Z,24.17
2022-08-12T10:32:20.708Z,25.21
2022-08-12T10:32:56.276Z,24.61
2022-08-12T10:34:05.490Z,23.94
2022-08-12T10:34:56.908Z,24.15
2022-08-12T10:35:54.005Z,24.33
2022-08-12T10:36:53.986Z,23.55
2022-08-12T10:38:37.876Z,22.38
2022-08-12T10:38:56.512Z,23.16
2022-08-12T10:40:05.730Z,23.76
2022-08-12T10:40:55.020Z,24.33
2022-08-12T10:41:58.713Z,23.48
2022-08-12T10:42:53.915Z,23.89
2022-08-12T10:43:56.307Z,23.99
2022-08-12T10:44:53.892Z,24.90
2022-08-12T10:45:53.889Z,24.21
2022-08-12T10:46:53.870Z,25.75
2022-08-12T10:48:20.056Z,24.79
2022-08-12T10:48:55.863Z,25.27
2022-08-12T10:50:04.999Z,24.19
2022-08-12T10:51:02.612Z,25.24
2022-08-12T10:52:30.994Z,24.94
2022-08-12T10:52:54.832Z,25.79
2022-08-12T10:53:53.802Z,26.12
2022-08-12T10:54:53.783Z,25.69
2022-08-12T10:55:56.372Z,25.87
2022-08-12T10:56:53.760Z,24.89
2022-08-12T10:58:14.745Z,24.00
2022-08-12T10:58:54.762Z,24.50
2022-08-12T11:00:30.676Z,24.48
2022-08-12T11:00:55.236Z,23.87
2022-08-12T11:04:18.287Z,23.49
2022-08-12T11:04:23.739Z,23.00
2022-08-12T11:04:27.371Z,23.66
2022-08-12T11:04:55.371Z,24.58
2022-08-12T11:07:07.393Z,24.58
2022-08-12T11:07:09.932Z,24.01
2022-08-12T11:08:35.088Z,23.71
2022-08-12T11:08:54.764Z,25.15
2022-08-12T11:10:00.525Z,23.47
2022-08-12T11:10:53.606Z,23.94
2022-08-12T11:12:34.548Z,23.16
2022-08-12T11:12:58.461Z,22.63
2022-08-12T11:13:53.571Z,23.72
2022-08-12T11:14:53.564Z,23.52
2022-08-12T11:16:03.942Z,22.82
2022-08-12T11:17:43.049Z,24.39
2022-08-12T11:17:55.629Z,23.79
2022-08-12T11:18:55.181Z,23.22
2022-08-12T11:19:53.511Z,22.86
2022-08-12T11:20:53.497Z,23.56
2022-08-12T11:21:57.794Z,24.13
2022-08-12T11:22:58.941Z,23.84
2022-08-12T11:23:53.902Z,23.61
2022-08-12T11:24:53.788Z,22.74
2022-08-12T11:25:57.883Z,22.41
2022-08-12T11:26:53.487Z,23.42
2022-08-12T11:27:53.429Z,23.10
2022-08-12T11:28:59.230Z,23.20
2022-08-12T11:30:02.330Z,22.89
2022-08-12T11:30:53.698Z,23.59
2022-08-12T11:32:02.068Z,23.56
2022-08-12T11:32:53.374Z,24.60
2022-08-12T11:34:06.373Z,26.61
2022-08-12T11:34:55.304Z,27.69
2022-08-12T11:35:59.159Z,27.23
2022-08-12T11:36:53.634Z,27.15
2022-08-12T11:37:59.025Z,26.51
2022-08-12T11:38:53.271Z,27.06
2022-08-12T11:40:53.250Z,25.27
2022-08-12T11:41:53.660Z,26.41
2022-08-12T11:42:53.231Z,24.06
2022-08-12T11:43:58.501Z,24.73
2022-08-12T11:44:53.212Z,25.01
2022-08-12T11:45:56.763Z,23.80
2022-08-12T11:46:53.479Z,23.03
2022-08-12T11:47:54.858Z,24.01
2022-08-12T11:48:53.166Z,24.10
2022-08-12T11:49:53.154Z,22.72
2022-08-12T11:50:53.145Z,23.41
2022-08-12T11:51:57.503Z,22.42
2022-08-12T11:52:56.555Z,22.93
2022-08-12T11:53:57.338Z,24.05
2022-08-12T11:54:54.331Z,24.05
2022-08-12T11:55:53.088Z,23.65
2022-08-12T11:56:59.971Z,24.73
2022-08-12T11:58:39.366Z,24.13
2022-08-12T12:01:58.910Z,23.25
2022-08-12T12:02:01.717Z,24.68
2022-08-12T12:02:53.041Z,25.32
2022-08-12T12:03:54.769Z,25.00
2022-08-12T12:04:53.831Z,25.47
2022-08-12T12:05:52.983Z,24.10
2022-08-12T12:06:53.362Z,23.91
2022-08-12T12:08:38.047Z,25.16
2022-08-12T12:08:53.922Z,23.30
2022-08-12T12:09:53.865Z,24.45
2022-08-12T12:10:52.923Z,22.77
2022-08-12T12:11:52.915Z,22.86
2022-08-12T12:12:52.900Z,23.24
2022-08-12T12:14:07.372Z,23.22
2022-08-12T12:14:54.603Z,22.76
2022-08-12T12:15:53.184Z,24.82
2022-08-12T12:16:52.872Z,24.04
2022-08-12T12:17:55.911Z,23.15
2022-08-12T12:18:52.842Z,22.28
2022-08-12T12:19:52.838Z,23.45
2022-08-12T12:20:52.820Z,23.07
2022-08-12T12:21:52.812Z,24.01
2022-08-12T12:22:52.797Z,22.96
2022-08-12T12:23:52.785Z,22.56
2022-08-12T12:24:53.970Z,23.44
2022-08-12T12:26:06.894Z,23.35
2022-08-12T12:27:00.277Z,23.22
2022-08-12T12:28:04.185Z,22.92
2022-08-12T12:28:54.431Z,23.88
2022-08-12T12:30:18.139Z,22.79
2022-08-12T12:30:54.675Z,22.22
2022-08-12T12:32:10.959Z,22.62
2022-08-12T12:32:53.481Z,23.35
2022-08-12T12:33:57.923Z,23.04
2022-08-12T12:35:13.939Z,22.36
2022-08-12T12:36:18.526Z,22.78
2022-08-12T12:36:54.735Z,23.38
2022-08-12T12:38:04.666Z,23.28
2022-08-12T12:38:52.629Z,24.44
2022-08-12T12:39:55.294Z,23.73
2022-08-12T12:40:52.602Z,23.24
2022-08-12T12:42:42.744Z,22.64
2022-08-12T12:42:57.922Z,21.97
2022-08-12T12:44:03.586Z,23.07
2022-08-12T12:44:53.919Z,23.07
2022-08-12T12:45:52.545Z,23.94
2022-08-12T12:46:52.531Z,24.83
2022-08-12T12:47:52.523Z,24.05
2022-08-12T12:48:52.510Z,24.73
2022-08-12T12:49:53.632Z,24.34
2022-08-12T12:50:52.484Z,23.90
2022-08-12T12:52:18.416Z,24.77
2022-08-12T12:52:52.458Z,24.76
2022-08-12T12:54:08.368Z,24.28
2022-08-12T12:54:53.470Z,24.48
2022-08-12T12:55:52.440Z,24.10